Capon Springs, WV

17:21 EDT le 02 septembre 2014 (GMT -0400)
Our Lady's Mount, Short Mountain WV | Change Station
CLOSE
Current Station
Stations météorologiques personnelles
Location: Delray, WV
Altitude: 1201 ft
Stations météo à proximité

Alt. 1201 ft 39.18 °N, 78.64 °W | Updated 14 minutes ago

Partiellement nuageux
Partiellement nuageux
77.2 ° F
Paraît 79 ° F
N
0.0
Vent Variable Vent de NE

Aujourd'hui
Haut(e) -- | Bas -- ° F
--% Risque de précip.
Hier
Haut(e) -- | Bas -- ° F
Precip. -- pouce
6:43 AM 7:42 PM
Premier quartier, 55% visible
Pression 29.89 pouce
Visibilité 10.0 Miles terrestres
Nuages Nuages épars 7000 ft
Nuages épars 8500 ft
indice de chaleur 79 ° F
Point de rosée 72 ° F
Humidité 85%
Précipitations 0.13 pouce
Profondeur de la couche neigeuse Non disponible.
UV 2 sur 12
Pollen 9.30 sur 12
Qualité de l'air Non disponible.
Flu Activity Non disponible.
METAR KOKV 022115Z AUTO 00000KT 10SM SCT070 SCT085 28/17 A2989 RMK AO2 LTG DSNT NE THRU S

More Conditions Fewer Conditions

Pression 29.89 pouce
Visibilité 10.0 Miles terrestres
Nuages Nuages épars 7000 ft
Nuages épars 8500 ft
indice de chaleur 79 ° F
Point de rosée 72 ° F
Humidité 85%
Précipitations 0.13 pouce
Profondeur de la couche neigeuse Non disponible.
UV 2 sur 12
Pollen 9.30 sur 12
Qualité de l'air Non disponible.
Flu Activity Non disponible.
METAR KOKV 022115Z AUTO 00000KT 10SM SCT070 SCT085 28/17 A2989 RMK AO2 LTG DSNT NE THRU S

More Conditions Fewer Conditions

10-Day Weather Forecast

Almanac

Astronomie

Sep. 02, 2014 Lever Coucher
Temps réel 06:43 EDT 19:42 EDT
Crépuscule civil 06:16 EDT 20:10 EDT
Crépuscule nautique 05:43 EDT 20:42 EDT
Crépuscule astronomique 05:09 EDT 21:16 EDT
Lune 14:22 EDT Pas de coucher de lune
Durée de lumière visible 13h 54m
Longueur du jour
12h 59m
Tomorrow will be 2m 27s shorter.
Premier quartier, 55% of the Moon is Illuminated
Aujourd'hui
Premier quartier
Sep 8
Pleine lune
Sep 15
Dernier quartier
Sep 24
Nouveau
Oct 1
Premier quartier

Extrêmes aujourd'hui

State Highs State Lows

Community

WunderPhotos

Upload Photos

1,749,769 Photos téléchargées !

Nearby

Épaisseur de neige

Station Depth Altitude
Pas de nouvelles chutes de neige

Activité sismique

Ville Distance Mag. Time & Date
No recent earthquake activity has been reported nearby.
Minimum magnitude displayed is 2.5.

Températures des eaux côtières

Lieu Température
Aucun rapport de station

Stations météo à proximité